Thomas Jefferson — WTEA — position and weather

sailwx.info

Track history (hours):
 
Tides and Currents Weather Stations Pressure Air Temp Water Temp Dewpoint Dewpoint Depression Visibility Wind Speed Wind Dir Waves Ship Positions

Oceanographic research ship Thomas Jefferson (USA)

Detailed information on ship capabilities available from University of Delaware's Ocean Information Center.

Last reported at 2017-Aug-20 11:30 UTC. Time now 2017-Aug-20 11:29 UTC.
Position N 31°57' W 080°40'.

Type: Dredging. MMSI: 369958000.

Date/timePositionNaut miles runAvg speedWind from/ knotsBaromVisibWave heightAir tempDewpointWater temp
2017-Aug-20 11:30N 31°57' W 080°40'2 3.6
2017-Aug-20 11:00N 31°57' W 080°42'3247.1
2017-Aug-20 11:00N 31°54' W 080°42'611.5 190 / 12 29.1 29.6
2017-Aug-20 10:30N 31°57' W 080°37'3 6.5
2017-Aug-20 10:00N 31°57' W 080°41'5635.3
2017-Aug-20 10:00N 31°54' W 080°36'511.2 210 / 11 29.0 29.5
2017-Aug-20 09:30N 31°57' W 080°41'510.6
2017-Aug-20 09:00N 31°54' W 080°36'3233.4 210 / 11 29.0 29.5
2017-Aug-20 08:59N 31°57' W 080°36'4 8.9
2017-Aug-20 08:30N 31°57' W 080°41'0 0.1
2017-Aug-20 08:00N 31°57' W 080°41'6397.5
2017-Aug-20 08:00N 31°54' W 080°36'3 6.2 220 / 9 29.1 29.6
2017-Aug-20 07:30N 31°57' W 080°36'4 8.7
2017-Aug-20 07:00N 31°57' W 080°41'6640.1
2017-Aug-20 07:00N 31°54' W 080°36'510.5 210 / 12 29.2 29.6
2017-Aug-20 06:30N 31°57' W 080°41'4 7.3
2017-Aug-20 06:00N 31°57' W 080°36'3359.0
2017-Aug-20 06:00N 31°54' W 080°36'612.0 210 / 11 29.3 29.6
2017-Aug-20 05:30N 31°57' W 080°42'2 3.6
2017-Aug-20 05:00N 31°57' W 080°40'4310.7
2017-Aug-20 05:00N 31°54' W 080°36'3 5.8 200 / 10 29.4 29.6
2017-Aug-20 04:30N 31°57' W 080°37'5 9.7
2017-Aug-20 04:00N 31°57' W 080°43'3200.2
2017-Aug-20 04:00N 31°54' W 080°42'4 7.9 200 / 11 29.2 29.6
2017-Aug-20 03:30N 31°57' W 080°39'2 3.1
2017-Aug-20 03:00N 31°56' W 080°37'2174.9
2017-Aug-20 03:00N 31°54' W 080°36'511.1 190 / 13 29.0 29.6
2017-Aug-20 02:30N 31°56' W 080°42'2 4.3
2017-Aug-20 02:00N 31°56' W 080°39'4259.8
2017-Aug-20 02:00N 31°54' W 080°36'2 4.4 200 / 14 29.1 29.6
2017-Aug-20 01:30N 31°56' W 080°35'611.5
2017-Aug-20 01:00N 31°54' W 080°42'2264.0 190 / 18 29.0 29.5
2017-Aug-20 00:59N 31°56' W 080°42'2 4.8
2017-Aug-20 00:30N 31°57' W 080°39'3 6.9
2017-Aug-20 00:00N 31°57' W 080°35'5380.8
2017-Aug-20 00:00N 31°54' W 080°30'713.3 180 / 15 28.9 29.7
2017-Aug-19 23:29N 31°57' W 080°37'4 7.5
2017-Aug-19 23:00N 31°57' W 080°33'4275.5
2017-Aug-19 23:00N 31°54' W 080°30'2 3.1 180 / 16 29.2 29.8
2017-Aug-19 22:30N 31°55' W 080°29'1 2.3
2017-Aug-19 22:00N 31°56' W 080°30'2202.9
2017-Aug-19 22:00N 31°54' W 080°30'510.0 190 / 17 28.7 29.8
2017-Aug-19 21:30N 31°58' W 080°34'3 5.8
2017-Aug-19 21:00N 32°00' W 080°36'220.3 190 / 14 28.9 30.5
2017-Aug-19 20:55N 32°00' W 080°38'2 3.4
2017-Aug-19 20:28N 32°02' W 080°39'3 6.3
2017-Aug-19 20:00N 32°00' W 080°36'313.8 190 / 15 28.9 30.4
2017-Aug-19 19:48N 32°02' W 080°38'0 0.0
2017-Aug-19 19:12N 32°02' W 080°38'311.8
2017-Aug-19 19:00N 32°00' W 080°36'3 6.6 200 / 13 28.9 29.8
2017-Aug-19 18:36N 32°02' W 080°38'0 0.0
2017-Aug-19 18:06N 32°02' W 080°38'321.8
2017-Aug-19 18:00N 32°00' W 080°36'3 8.9 190 / 13 28.6 29.8
2017-Aug-19 17:42N 32°02' W 080°38'0 0.0
2017-Aug-19 17:30N 32°02' W 080°38'3 4.9
2017-Aug-19 17:00N 32°00' W 080°36'313.6 200 / 11 28.3 30.1
2017-Aug-19 16:48N 32°02' W 080°38'3 3.1
2017-Aug-19 16:00N 32°00' W 080°36'213.5 200 / 9 27.9 29.9
2017-Aug-19 15:48N 32°02' W 080°38'0 0.0
2017-Aug-19 15:30N 32°02' W 080°38'2 4.8
2017-Aug-19 15:00N 32°00' W 080°36'229.5 220 / 7 27.7 29.7
2017-Aug-19 14:54N 32°02' W 080°38'2 2.7
2017-Aug-19 14:00N 32°00' W 080°36'2 3.2 240 / 7 27.4 29.6
2017-Aug-19 13:13N 32°02' W 080°38'0 1.2
2017-Aug-19 13:00N 32°02' W 080°38'3207.1
2017-Aug-19 13:00N 32°00' W 080°36'3 6.1 250 / 8 27.1 29.5
2017-Aug-19 12:30N 32°03' W 080°38'3 6.0
2017-Aug-19 12:00N 32°00' W 080°36'378.5 240 / 10 28.4 29.5
2017-Aug-19 11:57N 32°01' W 080°39'3 6.0
2017-Aug-19 11:30N 31°59' W 080°42'2 3.9
2017-Aug-19 11:00N 31°57' W 080°42'3194.3
2017-Aug-19 11:00N 31°54' W 080°42'611.0 250 / 10 27.0 29.5
2017-Aug-19 10:28N 31°57' W 080°36'4 8.7
2017-Aug-19 10:00N 31°57' W 080°41'51266.9
2017-Aug-19 10:00N 31°54' W 080°36'612.3 250 / 10 27.2 29.4
2017-Aug-19 09:31N 31°57' W 080°42'611.5
2017-Aug-19 09:00N 31°54' W 080°36'41866.8 250 / 12 27.7 29.4
2017-Aug-19 08:59N 31°56' W 080°39'2 3.5
2017-Aug-19 08:30N 31°56' W 080°38'4 8.7
2017-Aug-19 08:01N 31°56' W 080°43'2117.8
2017-Aug-19 08:00N 31°54' W 080°42'5 9.3 240 / 15 27.7 29.4
2017-Aug-19 07:30N 31°56' W 080°37'2 4.1
2017-Aug-19 07:00N 31°56' W 080°40'4386.0
2017-Aug-19 07:00N 31°54' W 080°36'4 7.2 230 / 16 27.9 29.4
2017-Aug-19 06:29N 31°56' W 080°40'2 4.7
2017-Aug-19 06:00N 31°56' W 080°37'2133.7
2017-Aug-19 06:00N 31°54' W 080°36'510.3 240 / 15 28.2 29.4
2017-Aug-19 05:30N 31°56' W 080°42'5 9.1
2017-Aug-19 05:00N 31°56' W 080°36'2463.5
2017-Aug-19 05:00N 31°54' W 080°36'4 9.1 210 / 17 29.2 29.5
2017-Aug-19 04:30N 31°56' W 080°41'2 3.1
2017-Aug-19 04:00N 31°55' W 080°43'1101.7
2017-Aug-19 04:00N 31°54' W 080°42'611.9 220 / 17 29.0 29.7
2017-Aug-19 03:30N 31°60' W 080°43'3 5.4
2017-Aug-19 03:00N 31°57' W 080°42'3849.8
2017-Aug-19 03:00N 31°54' W 080°42'6 7.2 220 / 14 29.1 29.8
2017-Aug-19 02:13N 31°59' W 080°40'2 8.7
2017-Aug-19 02:00N 32°01' W 080°40'4334.6
2017-Aug-19 02:00N 32°00' W 080°36'510.2 210 / 17 29.8 29.7
2017-Aug-19 01:30N 31°57' W 080°41'510.6
2017-Aug-19 01:00N 31°54' W 080°36'611.5 210 / 20 29.5 29.6
2017-Aug-19 00:26N 31°60' W 080°39'2 5.1
2017-Aug-19 00:00N 32°02' W 080°39'3367.5
2017-Aug-19 00:00N 32°00' W 080°36'1 2.8 190 / 21 29.7 30.3
2017-Aug-18 23:30N 32°01' W 080°35'4 7.8
2017-Aug-18 23:00N 32°00' W 080°30'1113.2 190 / 20 29.6 30.2
2017-Aug-18 22:11N 32°03' W 080°42'1 6.5
2017-Aug-18 22:00N 32°02' W 080°41'5322.5
2017-Aug-18 22:00N 32°00' W 080°36'3 3.3 180 / 17 30.5 30.5
2017-Aug-18 21:14N 32°02' W 080°38'729.0
2017-Aug-18 21:00N 32°00' W 080°30'7107.0 180 / 131012.810.8 30.528.5-30.5
2017-Aug-18 20:56N 32°02' W 080°38'3 2.7
2017-Aug-18 20:00N 32°00' W 080°36'3 2.9 180 / 14 29.8 30.3
2017-Aug-18 19:08N 32°02' W 080°38'318.5
2017-Aug-18 19:00N 32°00' W 080°36'0 0.0 180 / 11 29.9 30.1
2017-Aug-18 18:00N 32°00' W 080°36'3 2.6 170 / 10 29.9 30.0
2017-Aug-18 17:02N 32°02' W 080°38'369.6
2017-Aug-18 17:00N 32°00' W 080°36'339.4 160 / 6 31.1 30.2
2017-Aug-18 16:56N 32°02' W 080°38'0 0.4
2017-Aug-18 16:30N 32°02' W 080°38'3 5.3
2017-Aug-18 16:00N 32°02' W 080°35'4318.1
2017-Aug-18 16:00N 32°00' W 080°30'3 5.3 150 / 3 29.9 30.6
2017-Aug-18 15:30N 32°00' W 080°33'3 5.2
2017-Aug-18 15:00N 32°00' W 080°30'3105.1 300 / 2 29.8 29.9
2017-Aug-18 14:58N 32°02' W 080°32'1 1.0
2017-Aug-18 14:14N 32°03' W 080°33'415.8
2017-Aug-18 14:00N 32°00' W 080°30'3 5.5 300 / 9 29.0 29.7
2017-Aug-18 13:30N 32°02' W 080°33'3 5.5
2017-Aug-18 13:00N 32°03' W 080°35'5425.8
2017-Aug-18 13:00N 32°00' W 080°30'612.1 290 / 12 30.5 29.6
2017-Aug-18 12:30N 32°03' W 080°36'3 5.9
2017-Aug-18 12:00N 32°00' W 080°36'3759.0 270 / 11 30.0 29.6
2017-Aug-18 11:59N 32°03' W 080°37'4 6.8
2017-Aug-18 11:24N 31°59' W 080°39'4 9.2
2017-Aug-18 11:00N 31°55' W 080°39'3175.9
2017-Aug-18 11:00N 31°54' W 080°36'611.5 270 / 15 28.0 29.6
2017-Aug-18 10:29N 31°60' W 080°38'2 3.3
2017-Aug-18 10:00N 32°00' W 080°36'152.9 240 / 15 28.2 29.6
2017-Aug-18 09:58N 32°00' W 080°37'4 9.6
2017-Aug-18 09:30N 31°56' W 080°37'2 3.9
2017-Aug-18 09:00N 31°54' W 080°36'736.0 250 / 18 28.9 29.6
2017-Aug-18 08:48N 32°01' W 080°37'1 3.0
2017-Aug-18 08:30N 31°60' W 080°37'1 2.1
2017-Aug-18 08:00N 32°01' W 080°37'199.9
2017-Aug-18 08:00N 32°00' W 080°36'6 9.1 230 / 18 29.1 29.6
2017-Aug-18 07:17N 32°00' W 080°28'2 7.7
2017-Aug-18 07:00N 32°00' W 080°26'2172.9
2017-Aug-18 07:00N 32°00' W 080°24'3 5.0 210 / 14 29.3 29.6
2017-Aug-18 06:23N 32°01' W 080°27'0 1.1
2017-Aug-18 06:00N 32°00' W 080°27'8602.6
2017-Aug-18 06:00N 32°00' W 080°18'816.6 230 / 131014.410.8 29.527.5-29.6
2017-Aug-18 05:30N 32°00' W 080°27'3 5.8
2017-Aug-18 05:00N 32°00' W 080°24'351.8 220 / 18 29.4 29.6
2017-Aug-18 04:56N 32°01' W 080°27'1 1.4
2017-Aug-18 04:30N 32°00' W 080°28'3 6.4
2017-Aug-18 04:00N 32°00' W 080°24'329.9 210 / 17 29.5 29.7
2017-Aug-18 03:54N 32°00' W 080°27'1 1.8
2017-Aug-18 03:27N 32°00' W 080°27'1 2.3
2017-Aug-18 03:00N 32°00' W 080°28'3248.4
2017-Aug-18 03:00N 32°00' W 080°24'2 4.7 210 / 18 29.9 29.8
2017-Aug-18 02:28N 32°00' W 080°27'815.9
2017-Aug-18 02:00N 32°00' W 080°18'6 6.5 210 / 17 29.8 30.0
2017-Aug-18 01:08N 32°01' W 080°12'210.6
2017-Aug-18 00:54N 32°02' W 080°09'1314.0
2017-Aug-18 00:00N 32°00' W 079°54'646.1 210 / 11 29.8 29.5
2017-Aug-17 23:52N 32°05' W 079°57'410.8
2017-Aug-17 23:28N 32°07' W 079°52'510.7
2017-Aug-17 23:00N 32°09' W 079°47'5398.0
2017-Aug-17 23:00N 32°06' W 079°42'8 7.9 210 / 11 30.0 29.8
2017-Aug-17 22:00N 32°12' W 079°36'1616.4 210 / 10 29.8 29.7
2017-Aug-17 21:00N 32°18' W 079°18'8 7.9 210 / 91014.510.8 29.928.7-29.7
2017-Aug-17 20:00N 32°24' W 079°12'1211.8 200 / 10 30.130.130.2
2017-Aug-17 19:00N 32°30' W 079°00'1211.8 200 / 10 29.7 29.8
2017-Aug-17 18:00N 32°36' W 078°48'8 7.8 210 / 10 29.6 29.4
2017-Aug-17 17:00N 32°42' W 078°42'1615.7 210 / 12 29.2 29.4
2017-Aug-17 16:00N 32°54' W 078°30'1211.7 220 / 11 29.1 29.4
2017-Aug-17 15:00N 33°00' W 078°18'1211.7 170 / 9 28.9 29.1
2017-Aug-17 14:00N 33°06' W 078°06'1211.7 220 / 6 28.7 29.0
2017-Aug-17 13:00N 33°12' W 077°54'1211.7 200 / 6 28.6 28.8
2017-Aug-17 12:00N 33°18' W 077°42'1211.7 190 / 6 28.4 28.5
2017-Aug-17 11:00N 33°24' W 077°30'8 7.8 210 / 6 28.3 28.7
2017-Aug-17 10:00N 33°30' W 077°24'1211.7 160 / 4 28.2 29.0
2017-Aug-17 09:00N 33°36' W 077°12'1615.6 120 / 4 28.1 29.0
2017-Aug-17 08:00N 33°48' W 077°00'8 7.8 070 / 2 27.8 28.9
2017-Aug-17 07:00N 33°54' W 076°54'1211.6 030 / 2 27.5 28.7
2017-Aug-17 06:00N 34°00' W 076°42'8 7.8 310 / 2 27.5 28.7
2017-Aug-17 05:00N 34°06' W 076°36'1615.6 310 / 3 27.6 28.6
2017-Aug-17 04:00N 34°18' W 076°24'1616.0 360 / 4 27.5 28.7
2017-Aug-17 03:00N 34°24' W 076°06'8 7.8 020 / 21016.010.8 27.526.4-28.6
2017-Aug-17 02:00N 34°30' W 076°00'8 7.8 050 / 9 27.1 29.6
2017-Aug-17 01:00N 34°36' W 075°54'1211.6 060 / 11 26.9 28.4
2017-Aug-17 00:00N 34°42' W 075°42'8 7.8 050 / 11 26.9 28.2
2017-Aug-16 23:00N 34°48' W 075°36'1211.5 040 / 13 28.8 28.2
2017-Aug-16 22:00N 34°54' W 075°24'1313.0 030 / 13 29.9 28.7
2017-Aug-16 21:00N 35°06' W 075°18'8 7.8 020 / 14 29.7 28.4
2017-Aug-16 20:00N 35°12' W 075°12'1212.0 010 / 14 28.9 27.0
2017-Aug-16 19:00N 35°24' W 075°12'1212.0 010 / 12 30.6 26.7
2017-Aug-16 18:00N 35°36' W 075°12'1212.0 010 / 10 27.4 26.7
2017-Aug-16 17:00N 35°48' W 075°12'1212.0 010 / 10 26.5 25.9
2017-Aug-16 16:00N 36°00' W 075°12'1312.9 040 / 9 26.2 26.1
2017-Aug-16 15:00N 36°12' W 075°06'1312.9 010 / 91015.0 31.027.0-25.9
2017-Aug-16 14:00N 36°24' W 075°12'1212.0 010 / 7 26.4 25.8
2017-Aug-16 13:00N 36°36' W 075°12'6 6.0 020 / 8 26.2 25.7
2017-Aug-16 12:00N 36°42' W 075°12'1212.0 030 / 6 25.4 25.7
2017-Aug-16 11:00N 36°54' W 075°12'1212.0 020 / 6 25.1 25.4
2017-Aug-16 10:00N 37°06' W 075°12'1515.3 010 / 7 24.724.725.6
2017-Aug-16 09:00N 37°18' W 075°00'6 6.0 360 / 7 24.124.125.1
2017-Aug-16 08:00N 37°24' W 075°00'1312.9 030 / 4 23.923.925.0
2017-Aug-16 07:00N 37°36' W 074°54'1312.9 340 / 2 24.224.224.7
2017-Aug-16 06:00N 37°48' W 074°48'8 7.6 290 / 2 24.224.224.7
2017-Aug-16 05:00N 37°54' W 074°42'1312.9 350 / 2 24.524.524.9
2017-Aug-16 04:00N 38°06' W 074°36'1312.9 040 / 4 24.824.725.1
2017-Aug-16 03:00N 38°18' W 074°30'8 7.6 040 / 4 24.724.625.2
2017-Aug-16 02:00N 38°24' W 074°24'1312.9 020 / 6 24.824.725.3
2017-Aug-16 01:00N 38°36' W 074°18'1312.9 060 / 6 24.824.125.1
2017-Aug-16 00:00N 38°48' W 074°12'2010.1 040 / 5 24.124.224.7
2017-Aug-15 22:00N 39°06' W 074°00'1312.9 030 / 10 23.723.824.8
2017-Aug-15 21:00N 39°18' W 073°54'1312.9 050 / 7 23.523.524.6
2017-Aug-15 20:00N 39°30' W 073°48'1111.0 090 / 5 23.323.323.9
2017-Aug-15 19:00N 39°36' W 073°36'8 7.6 110 / 3 23.123.124.0
2017-Aug-15 18:00N 39°42' W 073°30'1111.0 110 / 5 23.322.623.9
2017-Aug-15 17:00N 39°48' W 073°18'1515.1 120 / 9 23.222.823.7
2017-Aug-15 16:00N 40°00' W 073°06'1111.0 110 / 10 23.221.624.2
2017-Aug-15 15:00N 40°06' W 072°54'1111.0 120 / 8 23.618.024.1
2017-Aug-15 14:00N 40°12' W 072°42'1110.9 110 / 8 22.821.722.5
2017-Aug-15 13:00N 40°18' W 072°30'1110.9 110 / 9 22.521.922.6
2017-Aug-15 12:00N 40°24' W 072°18'1110.9 080 / 7 22.521.522.5
2017-Aug-15 11:00N 40°30' W 072°06'2612.8 050 / 6 22.321.122.2
2017-Aug-15 09:00N 40°48' W 071°42'1110.9 310 / 6 22.519.522.4
2017-Aug-15 08:00N 40°54' W 071°30'1312.8 240 / 7 22.320.422.1
2017-Aug-15 07:00N 41°06' W 071°24'2210.0 210 / 11 22.321.622.5
2017-Aug-15 04:48N 41°24' W 071°07'6 9.3
2017-Aug-15 04:07N 41°27' W 070°60'1 8.8
2017-Aug-15 04:00N 41°28' W 070°59'5 9.9
2017-Aug-15 03:30N 41°30' W 070°53'510.6
2017-Aug-15 02:59N 41°33' W 070°46'9 9.2
2017-Aug-15 01:59N 41°41' W 070°41'3 5.6
2017-Aug-15 01:30N 41°43' W 070°39'1121.4
2017-Aug-15 01:00N 41°42' W 070°24'839.8 1015.510.8 20.719.7
2017-Aug-15 00:47N 41°46' W 070°34'2 7.6
2017-Aug-15 00:30N 41°46' W 070°31'4 7.0
2017-Aug-15 00:00N 41°48' W 070°27'3 5.4
2017-Aug-14 23:30N 41°51' W 070°28'3 6.6
2017-Aug-14 23:00N 41°54' W 070°28'4 8.1
2017-Aug-14 22:30N 41°58' W 070°29'510.7
2017-Aug-14 22:00N 42°04' W 070°30'611.2
2017-Aug-14 21:30N 42°09' W 070°32'510.8
2017-Aug-14 21:00N 42°13' W 070°36'5365.3
2017-Aug-14 21:00N 42°12' W 070°30'1020.3 100 / 101015.3 5.4 22.321.1-20.3
2017-Aug-14 20:30N 42°17' W 070°41'510.6
2017-Aug-14 20:00N 42°22' W 070°45'5 9.4
2017-Aug-14 19:30N 42°23' W 070°51'5 9.5
2017-Aug-14 19:00N 42°20' W 070°57'3 6.7
2017-Aug-14 18:30N 42°21' W 071°01'2 3.7
2017-Aug-14 18:00N 42°22' W 071°03'0 0.0
2017-Aug-14 17:29N 42°22' W 071°03'0 0.0
2017-Aug-14 16:59N 42°22' W 071°03'0 0.0
2017-Aug-14 16:29N 42°22' W 071°03'0 0.0
2017-Aug-14 15:59N 42°22' W 071°03'0 0.0
2017-Aug-14 15:29N 42°22' W 071°03'0 0.0
2017-Aug-14 14:59N 42°22' W 071°03'0 0.0
2017-Aug-14 14:29N 42°22' W 071°03'0 0.0
2017-Aug-14 13:59N 42°22' W 071°03'0 0.0
2017-Aug-14 13:29N 42°22' W 071°03'0 0.0
2017-Aug-14 12:59N 42°22' W 071°03'0 0.0
2017-Aug-14 12:29N 42°22' W 071°03'0 0.0
2017-Aug-14 11:59N 42°22' W 071°03'0 0.0
2017-Aug-14 11:26N 42°22' W 071°03'0 0.0
2017-Aug-14 10:59N 42°22' W 071°03'0 0.0
2017-Aug-14 10:29N 42°22' W 071°03'0 0.0
2017-Aug-14 09:59N 42°22' W 071°03'0 0.0
2017-Aug-14 09:29N 42°22' W 071°03'0 0.0
2017-Aug-14 08:59N 42°22' W 071°03'0 0.0
2017-Aug-14 08:29N 42°22' W 071°03'0 0.0
2017-Aug-14 07:59N 42°22' W 071°03'0 0.0
2017-Aug-14 07:29N 42°22' W 071°03'0 0.0
2017-Aug-14 06:59N 42°22' W 071°03'0 0.0
2017-Aug-14 06:29N 42°22' W 071°03'0 0.0
2017-Aug-14 05:59N 42°22' W 071°03'0 0.0
2017-Aug-14 05:29N 42°22' W 071°03'0 0.0
2017-Aug-14 04:59N 42°22' W 071°03'0 0.0
2017-Aug-14 04:29N 42°22' W 071°03'0 0.0
2017-Aug-14 03:59N 42°22' W 071°03'0 0.0
2017-Aug-14 03:29N 42°22' W 071°03'0 0.0
2017-Aug-14 02:59N 42°22' W 071°03'0 0.0
2017-Aug-14 02:29N 42°22' W 071°03'0 0.0
2017-Aug-14 01:59N 42°22' W 071°03'0 0.0
2017-Aug-14 01:29N 42°22' W 071°03'0 0.0
2017-Aug-14 00:59N 42°22' W 071°03'0 0.0
2017-Aug-14 00:29N 42°22' W 071°03'0 0.0
2017-Aug-13 23:59N 42°22' W 071°03'0 0.0
2017-Aug-13 23:29N 42°22' W 071°03'0 0.0
2017-Aug-13 22:59N 42°22' W 071°03'0 0.0
2017-Aug-13 22:29N 42°22' W 071°03'0 0.0
2017-Aug-13 21:59N 42°22' W 071°03'0 0.0
2017-Aug-13 21:29N 42°22' W 071°03'0 0.0
2017-Aug-13 20:59N 42°22' W 071°03'0 0.0
2017-Aug-13 20:29N 42°22' W 071°03'0 0.0
2017-Aug-13 19:53N 42°22' W 071°03'0 0.0
2017-Aug-13 19:29N 42°22' W 071°03'0 0.0
2017-Aug-13 18:59N 42°22' W 071°03'0 0.0
2017-Aug-13 18:29N 42°22' W 071°03'0 0.0
2017-Aug-13 17:59N 42°22' W 071°03'0 0.0
2017-Aug-13 17:29N 42°22' W 071°03'0 0.0
2017-Aug-13 16:59N 42°22' W 071°03'0 0.0
2017-Aug-13 16:29N 42°22' W 071°03'0 0.0
2017-Aug-13 15:59N 42°22' W 071°03'0 0.0
2017-Aug-13 15:29N 42°22' W 071°03'0 0.0
2017-Aug-13 14:59N 42°22' W 071°03'0 0.0
2017-Aug-13 14:29N 42°22' W 071°03'0 0.0
2017-Aug-13 13:59N 42°22' W 071°03'0 0.0
2017-Aug-13 13:29N 42°22' W 071°03'0 0.0
2017-Aug-13 12:59N 42°22' W 071°03'0 0.0
2017-Aug-13 12:29N 42°22' W 071°03'0 0.0
2017-Aug-13 11:59N 42°22' W 071°03'0 0.0
2017-Aug-13 11:29N 42°22' W 071°03'0 0.0
2017-Aug-13 10:59N 42°22' W 071°03'0 0.0
2017-Aug-13 10:29N 42°22' W 071°03'0 0.0
2017-Aug-13 09:59N 42°22' W 071°03'0 0.0
2017-Aug-13 09:29N 42°22' W 071°03'0 0.0
2017-Aug-13 09:00N 42°22' W 071°03'0 0.0
2017-Aug-13 08:29N 42°22' W 071°03'0 0.0
2017-Aug-13 07:59N 42°22' W 071°03'0 0.0
2017-Aug-13 07:29N 42°22' W 071°03'0 0.0
2017-Aug-13 06:59N 42°22' W 071°03'0 0.0
2017-Aug-13 06:29N 42°22' W 071°03'0 0.0
2017-Aug-13 05:59N 42°22' W 071°03'0 0.0
2017-Aug-13 05:29N 42°22' W 071°03'0 0.0
2017-Aug-13 04:59N 42°22' W 071°03'0 0.0
2017-Aug-13 04:29N 42°22' W 071°03'0 0.0
2017-Aug-13 03:59N 42°22' W 071°03'0 0.0
2017-Aug-13 03:29N 42°22' W 071°03'0 0.0
2017-Aug-13 02:59N 42°22' W 071°03'0 0.0
2017-Aug-13 02:29N 42°22' W 071°03'0 0.0
2017-Aug-13 01:59N 42°22' W 071°03'0 0.0
2017-Aug-13 01:29N 42°22' W 071°03'0 0.0
2017-Aug-13 00:59N 42°22' W 071°03'0 0.0
2017-Aug-13 00:29N 42°22' W 071°03'0 0.0
2017-Aug-12 23:59N 42°22' W 071°03'0 0.0
2017-Aug-12 23:29N 42°22' W 071°03'0 0.0
2017-Aug-12 22:59N 42°22' W 071°03'0 0.0
2017-Aug-12 22:29N 42°22' W 071°03'0 0.0
2017-Aug-12 21:59N 42°22' W 071°03'0 0.0
2017-Aug-12 21:29N 42°22' W 071°03'0 0.0
2017-Aug-12 20:59N 42°22' W 071°03'0 0.0
2017-Aug-12 20:29N 42°22' W 071°03'0 0.0
2017-Aug-12 19:56N 42°22' W 071°03'0 0.0
2017-Aug-12 19:23N 42°22' W 071°03'0 0.0
2017-Aug-12 18:59N 42°22' W 071°03'0 0.0
2017-Aug-12 18:29N 42°22' W 071°03'0 0.0
2017-Aug-12 17:59N 42°22' W 071°03'0 0.0
2017-Aug-12 17:29N 42°22' W 071°03'0 0.0
2017-Aug-12 16:59N 42°22' W 071°03'0 0.0
2017-Aug-12 16:29N 42°22' W 071°03'0 0.0
2017-Aug-12 15:59N 42°22' W 071°03'0 0.0
2017-Aug-12 15:29N 42°22' W 071°03'0 0.0
2017-Aug-12 14:59N 42°22' W 071°03'0 0.0
2017-Aug-12 14:29N 42°22' W 071°03'0 0.0
2017-Aug-12 13:59N 42°22' W 071°03'0 0.0
2017-Aug-12 13:29N 42°22' W 071°03'0 0.0
2017-Aug-12 12:59N 42°22' W 071°03'0 0.0
2017-Aug-12 12:29N 42°22' W 071°03'0 0.0
2017-Aug-12 11:59N 42°22' W 071°03'0 0.0
2017-Aug-12 11:29N 42°22' W 071°03'0 0.0
2017-Aug-12 10:59N 42°22' W 071°03'0 0.0
2017-Aug-12 10:29N 42°22' W 071°03'0 0.0
2017-Aug-12 09:59N 42°22' W 071°03'0 0.0
2017-Aug-12 09:29N 42°22' W 071°03'0 0.0
2017-Aug-12 08:59N 42°22' W 071°03'0 0.0
2017-Aug-12 08:29N 42°22' W 071°03'0 0.0
2017-Aug-12 07:59N 42°22' W 071°03'0 0.0
2017-Aug-12 07:29N 42°22' W 071°03'0 0.0
2017-Aug-12 06:59N 42°22' W 071°03'0 0.0
2017-Aug-12 06:29N 42°22' W 071°03'0 0.0
2017-Aug-12 05:59N 42°22' W 071°03'0 0.0
2017-Aug-12 05:29N 42°22' W 071°03'0 0.0
2017-Aug-12 04:59N 42°22' W 071°03'0 0.0
2017-Aug-12 04:29N 42°22' W 071°03'0 0.0
2017-Aug-12 03:59N 42°22' W 071°03'0 0.0
2017-Aug-12 03:29N 42°22' W 071°03'0 0.0
2017-Aug-12 02:59N 42°22' W 071°03'0 0.0
2017-Aug-12 02:29N 42°22' W 071°03'0 0.0
2017-Aug-12 01:59N 42°22' W 071°03'0 0.0
2017-Aug-12 01:29N 42°22' W 071°03'0 0.0
2017-Aug-12 00:59N 42°22' W 071°03'0 0.0
2017-Aug-12 00:29N 42°22' W 071°03'0 0.0
2017-Aug-11 23:59N 42°22' W 071°03'0 0.0
2017-Aug-11 23:29N 42°22' W 071°03'0 0.0
2017-Aug-11 22:59N 42°22' W 071°03'0 0.0
2017-Aug-11 22:29N 42°22' W 071°03'0 0.0
2017-Aug-11 21:59N 42°22' W 071°03'0 0.0
2017-Aug-11 21:29N 42°22' W 071°03'0 0.0
2017-Aug-11 20:59N 42°22' W 071°03'0 0.0
2017-Aug-11 20:29N 42°22' W 071°03'0 0.0
2017-Aug-11 19:59N 42°22' W 071°03'0 0.0
2017-Aug-11 19:29N 42°22' W 071°03'0 0.0
2017-Aug-11 18:59N 42°22' W 071°03'0 0.0
2017-Aug-11 18:29N 42°22' W 071°03'0 0.0
2017-Aug-11 17:59N 42°22' W 071°03'0 0.0
2017-Aug-11 17:29N 42°22' W 071°03'0 0.0
2017-Aug-11 16:59N 42°22' W 071°03'0 0.0
2017-Aug-11 16:29N 42°22' W 071°03'0 0.0
2017-Aug-11 15:59N 42°22' W 071°03'0 0.0
2017-Aug-11 15:29N 42°22' W 071°03'0 0.0
2017-Aug-11 14:56N 42°22' W 071°03'0 0.0
2017-Aug-11 13:59N 42°22' W 071°03'0 0.0
2017-Aug-11 13:29N 42°22' W 071°03'0 0.0
2017-Aug-11 12:59N 42°22' W 071°03'0 0.0
2017-Aug-11 12:29N 42°22' W 071°03'0 0.1
2017-Aug-11 12:00N 42°22' W 071°03'44131780.8
2017-Aug-11 12:00N 49°36' W 069°06'443916.8 120 / 3 20.716.419.5
2017-Aug-11 11:31N 42°20' W 071°00'4 7.2
2017-Aug-11 11:01N 42°22' W 070°56'72042508.2
2017-Aug-11 11:00N 50°00' W 084°18'7221494.6 190 / 11 17.316.815.9
2017-Aug-11 10:31N 42°23' W 070°50'4 8.3
2017-Aug-11 10:01N 42°23' W 070°45'62536879.6
2017-Aug-11 10:00N 49°24' W 081°48'6291286.6 200 / 5 17.917.618.4
2017-Aug-11 09:30N 42°22' W 070°39'4 8.9
2017-Aug-11 09:00N 42°22' W 070°33'4292.8
2017-Aug-11 09:00N 42°18' W 070°30'4 8.7 190 / 9 19.217.819.3
2017-Aug-11 08:30N 42°21' W 070°27'4 9.0
2017-Aug-11 08:01N 42°21' W 070°21'40523897.6
2017-Aug-11 08:00N 49°06' W 070°18'405837.9 180 / 12 18.717.718.1
2017-Aug-11 07:31N 42°21' W 070°15'5 9.1
2017-Aug-11 07:00N 42°21' W 070°08'41136123.9
2017-Aug-11 07:00N 49°12' W 070°06'412852.3 180 / 14 19.418.119.5
2017-Aug-11 06:31N 42°20' W 070°02'5 9.9
2017-Aug-11 06:01N 42°21' W 069°55'3180.1
2017-Aug-11 06:00N 42°18' W 069°54'612.0 180 / 8 19.818.019.9
2017-Aug-11 05:30N 42°22' W 069°49'510.6
2017-Aug-11 05:00N 42°24' W 069°42'4298.4
2017-Aug-11 05:00N 42°24' W 069°36'1 2.7 190 / 10 20.116.020.0
2017-Aug-11 04:30N 42°25' W 069°35'510.5
2017-Aug-11 04:00N 42°26' W 069°28'4325.1
2017-Aug-11 04:00N 42°24' W 069°24'4 8.9 210 / 8 20.016.719.5
2017-Aug-11 03:30N 42°28' W 069°21'610.8
2017-Aug-11 03:00N 42°29' W 069°14'499179672.3
2017-Aug-11 03:00N 42°24' W 080°30'507683.4 200 / 9 20.117.819.6
2017-Aug-11 02:15N 42°31' W 069°03'726.9
2017-Aug-11 02:00N 42°30' W 068°54'1110.7 200 / 9 20.018.618.8
2017-Aug-11 01:00N 42°36' W 068°42'1110.7 190 / 11 20.018.818.6
2017-Aug-11 00:00N 42°42' W 068°30'852852.0 170 / 10 19.319.019.1
2017-Aug-10 23:00N 56°54' W 068°18'8422729.2 190 / 11 19.619.418.7
2017-Aug-10 22:41N 42°53' W 068°19'567819.9
2017-Aug-10 22:00N 50°12' W 077°00'569569.5 210 / 13 19.619.319.0
2017-Aug-10 21:00N 43°00' W 068°00'574.2 210 18.218.219.1
2017-Aug-10 20:56N 43°05' W 067°60'25 8.6
2017-Aug-10 18:00N 43°18' W 067°30'0 0.0 170 / 91024.327.0 19.718.0-20.1
2017-Aug-10 16:00N 43°18' W 067°30'6 6.0 130 / 2 19.517.719.9
2017-Aug-10 15:00N 43°24' W 067°30'4 4.4 050 / 2 19.217.419.0
2017-Aug-10 14:00N 43°24' W 067°36'4 4.4 340 / 3 18.617.418.6
2017-Aug-10 13:00N 43°24' W 067°30'7 7.4 300 / 3 18.017.318.1
2017-Aug-10 12:00N 43°18' W 067°36'   240 / 7 18.817.818.4
Track history (hours):
 
Tides and Currents Weather Stations Pressure Air Temp Water Temp Dewpoint Dewpoint Depression Visibility Wind Speed Wind Dir Waves Ship Positions

Oceanographic research ship Thomas Jefferson (USA)

Detailed information on ship capabilities available from University of Delaware's Ocean Information Center.

Last reported at 2017-Aug-20 11:30 UTC. Time now 2017-Aug-20 11:29 UTC.
Position N 31°57' W 080°40'.

Type: Dredging. MMSI: 369958000.

Date/timePositionNaut miles runAvg speedWind from/ knotsBaromVisibWave heightAir tempDewpointWater temp
2017-Aug-20 11:30N 31°57' W 080°40'2 3.6
2017-Aug-20 11:00N 31°57' W 080°42'3247.1
2017-Aug-20 11:00N 31°54' W 080°42'611.5 190 / 12 29.1 29.6
2017-Aug-20 10:30N 31°57' W 080°37'3 6.5
2017-Aug-20 10:00N 31°57' W 080°41'5635.3
2017-Aug-20 10:00N 31°54' W 080°36'511.2 210 / 11 29.0 29.5
2017-Aug-20 09:30N 31°57' W 080°41'510.6
2017-Aug-20 09:00N 31°54' W 080°36'3233.4 210 / 11 29.0 29.5
2017-Aug-20 08:59N 31°57' W 080°36'4 8.9
2017-Aug-20 08:30N 31°57' W 080°41'0 0.1
2017-Aug-20 08:00N 31°57' W 080°41'6397.5
2017-Aug-20 08:00N 31°54' W 080°36'3 6.2 220 / 9 29.1 29.6
2017-Aug-20 07:30N 31°57' W 080°36'4 8.7
2017-Aug-20 07:00N 31°57' W 080°41'6640.1
2017-Aug-20 07:00N 31°54' W 080°36'510.5 210 / 12 29.2 29.6
2017-Aug-20 06:30N 31°57' W 080°41'4 7.3
2017-Aug-20 06:00N 31°57' W 080°36'3359.0
2017-Aug-20 06:00N 31°54' W 080°36'612.0 210 / 11 29.3 29.6
2017-Aug-20 05:30N 31°57' W 080°42'2 3.6
2017-Aug-20 05:00N 31°57' W 080°40'4310.7
2017-Aug-20 05:00N 31°54' W 080°36'3 5.8 200 / 10 29.4 29.6
2017-Aug-20 04:30N 31°57' W 080°37'5 9.7
2017-Aug-20 04:00N 31°57' W 080°43'3200.2
2017-Aug-20 04:00N 31°54' W 080°42'4 7.9 200 / 11 29.2 29.6
2017-Aug-20 03:30N 31°57' W 080°39'2 3.1
2017-Aug-20 03:00N 31°56' W 080°37'2174.9
2017-Aug-20 03:00N 31°54' W 080°36'511.1 190 / 13 29.0 29.6
2017-Aug-20 02:30N 31°56' W 080°42'2 4.3
2017-Aug-20 02:00N 31°56' W 080°39'4259.8
2017-Aug-20 02:00N 31°54' W 080°36'2 4.4 200 / 14 29.1 29.6
2017-Aug-20 01:30N 31°56' W 080°35'611.5
2017-Aug-20 01:00N 31°54' W 080°42'2264.0 190 / 18 29.0 29.5
2017-Aug-20 00:59N 31°56' W 080°42'2 4.8
2017-Aug-20 00:30N 31°57' W 080°39'3 6.9
2017-Aug-20 00:00N 31°57' W 080°35'5380.8
2017-Aug-20 00:00N 31°54' W 080°30'713.3 180 / 15 28.9 29.7
2017-Aug-19 23:29N 31°57' W 080°37'4 7.5
2017-Aug-19 23:00N 31°57' W 080°33'4275.5
2017-Aug-19 23:00N 31°54' W 080°30'2 3.1 180 / 16 29.2 29.8
2017-Aug-19 22:30N 31°55' W 080°29'1 2.3
2017-Aug-19 22:00N 31°56' W 080°30'2202.9
2017-Aug-19 22:00N 31°54' W 080°30'510.0 190 / 17 28.7 29.8
2017-Aug-19 21:30N 31°58' W 080°34'3 5.8
2017-Aug-19 21:00N 32°00' W 080°36'220.3 190 / 14 28.9 30.5
2017-Aug-19 20:55N 32°00' W 080°38'2 3.4
2017-Aug-19 20:28N 32°02' W 080°39'3 6.3
2017-Aug-19 20:00N 32°00' W 080°36'313.8 190 / 15 28.9 30.4
2017-Aug-19 19:48N 32°02' W 080°38'0 0.0
2017-Aug-19 19:12N 32°02' W 080°38'311.8
2017-Aug-19 19:00N 32°00' W 080°36'3 6.6 200 / 13 28.9 29.8
2017-Aug-19 18:36N 32°02' W 080°38'0 0.0
2017-Aug-19 18:06N 32°02' W 080°38'321.8
2017-Aug-19 18:00N 32°00' W 080°36'3 8.9 190 / 13 28.6 29.8
2017-Aug-19 17:42N 32°02' W 080°38'0 0.0
2017-Aug-19 17:30N 32°02' W 080°38'3 4.9
2017-Aug-19 17:00N 32°00' W 080°36'313.6 200 / 11 28.3 30.1
2017-Aug-19 16:48N 32°02' W 080°38'3 3.1
2017-Aug-19 16:00N 32°00' W 080°36'213.5 200 / 9 27.9 29.9
2017-Aug-19 15:48N 32°02' W 080°38'0 0.0
2017-Aug-19 15:30N 32°02' W 080°38'2 4.8
2017-Aug-19 15:00N 32°00' W 080°36'229.5 220 / 7 27.7 29.7
2017-Aug-19 14:54N 32°02' W 080°38'2 2.7
2017-Aug-19 14:00N 32°00' W 080°36'2 3.2 240 / 7 27.4 29.6
2017-Aug-19 13:13N 32°02' W 080°38'0 1.2
2017-Aug-19 13:00N 32°02' W 080°38'3207.1
2017-Aug-19 13:00N 32°00' W 080°36'3 6.1 250 / 8 27.1 29.5
2017-Aug-19 12:30N 32°03' W 080°38'3 6.0
2017-Aug-19 12:00N 32°00' W 080°36'378.5 240 / 10 28.4 29.5
2017-Aug-19 11:57N 32°01' W 080°39'3 6.0
2017-Aug-19 11:30N 31°59' W 080°42'2 3.9
2017-Aug-19 11:00N 31°57' W 080°42'3194.3
2017-Aug-19 11:00N 31°54' W 080°42'611.0 250 / 10 27.0 29.5
2017-Aug-19 10:28N 31°57' W 080°36'4 8.7
2017-Aug-19 10:00N 31°57' W 080°41'51266.9
2017-Aug-19 10:00N 31°54' W 080°36'612.3 250 / 10 27.2 29.4
2017-Aug-19 09:31N 31°57' W 080°42'611.5
2017-Aug-19 09:00N 31°54' W 080°36'41866.8 250 / 12 27.7 29.4
2017-Aug-19 08:59N 31°56' W 080°39'2 3.5
2017-Aug-19 08:30N 31°56' W 080°38'4 8.7
2017-Aug-19 08:01N 31°56' W 080°43'2117.8
2017-Aug-19 08:00N 31°54' W 080°42'5 9.3 240 / 15 27.7 29.4
2017-Aug-19 07:30N 31°56' W 080°37'2 4.1
2017-Aug-19 07:00N 31°56' W 080°40'4386.0
2017-Aug-19 07:00N 31°54' W 080°36'4 7.2 230 / 16 27.9 29.4
2017-Aug-19 06:29N 31°56' W 080°40'2 4.7
2017-Aug-19 06:00N 31°56' W 080°37'2133.7
2017-Aug-19 06:00N 31°54' W 080°36'510.3 240 / 15 28.2 29.4
2017-Aug-19 05:30N 31°56' W 080°42'5 9.1
2017-Aug-19 05:00N 31°56' W 080°36'2463.5
2017-Aug-19 05:00N 31°54' W 080°36'4 9.1 210 / 17 29.2 29.5
2017-Aug-19 04:30N 31°56' W 080°41'2 3.1
2017-Aug-19 04:00N 31°55' W 080°43'1101.7
2017-Aug-19 04:00N 31°54' W 080°42'611.9 220 / 17 29.0 29.7
2017-Aug-19 03:30N 31°60' W 080°43'3 5.4
2017-Aug-19 03:00N 31°57' W 080°42'3849.8
2017-Aug-19 03:00N 31°54' W 080°42'6 7.2 220 / 14 29.1 29.8
2017-Aug-19 02:13N 31°59' W 080°40'2 8.7
2017-Aug-19 02:00N 32°01' W 080°40'4334.6
2017-Aug-19 02:00N 32°00' W 080°36'510.2 210 / 17 29.8 29.7
2017-Aug-19 01:30N 31°57' W 080°41'510.6
2017-Aug-19 01:00N 31°54' W 080°36'611.5 210 / 20 29.5 29.6
2017-Aug-19 00:26N 31°60' W 080°39'2 5.1
2017-Aug-19 00:00N 32°02' W 080°39'3367.5
2017-Aug-19 00:00N 32°00' W 080°36'1 2.8 190 / 21 29.7 30.3
2017-Aug-18 23:30N 32°01' W 080°35'4 7.8
2017-Aug-18 23:00N 32°00' W 080°30'1113.2 190 / 20 29.6 30.2
2017-Aug-18 22:11N 32°03' W 080°42'1 6.5
2017-Aug-18 22:00N 32°02' W 080°41'5322.5
2017-Aug-18 22:00N 32°00' W 080°36'3 3.3 180 / 17 30.5 30.5
2017-Aug-18 21:14N 32°02' W 080°38'729.0
2017-Aug-18 21:00N 32°00' W 080°30'7107.0 180 / 131012.810.8 30.528.5-30.5
2017-Aug-18 20:56N 32°02' W 080°38'3 2.7
2017-Aug-18 20:00N 32°00' W 080°36'3 2.9 180 / 14 29.8 30.3
2017-Aug-18 19:08N 32°02' W 080°38'318.5
2017-Aug-18 19:00N 32°00' W 080°36'0 0.0 180 / 11 29.9 30.1
2017-Aug-18 18:00N 32°00' W 080°36'3 2.6 170 / 10 29.9 30.0
2017-Aug-18 17:02N 32°02' W 080°38'369.6
2017-Aug-18 17:00N 32°00' W 080°36'339.4 160 / 6 31.1 30.2
2017-Aug-18 16:56N 32°02' W 080°38'0 0.4
2017-Aug-18 16:30N 32°02' W 080°38'3 5.3
2017-Aug-18 16:00N 32°02' W 080°35'4318.1
2017-Aug-18 16:00N 32°00' W 080°30'3 5.3 150 / 3 29.9 30.6
2017-Aug-18 15:30N 32°00' W 080°33'3 5.2
2017-Aug-18 15:00N 32°00' W 080°30'3105.1 300 / 2 29.8 29.9
2017-Aug-18 14:58N 32°02' W 080°32'1 1.0
2017-Aug-18 14:14N 32°03' W 080°33'415.8
2017-Aug-18 14:00N 32°00' W 080°30'3 5.5 300 / 9 29.0 29.7
2017-Aug-18 13:30N 32°02' W 080°33'3 5.5
2017-Aug-18 13:00N 32°03' W 080°35'5425.8
2017-Aug-18 13:00N 32°00' W 080°30'612.1 290 / 12 30.5 29.6
2017-Aug-18 12:30N 32°03' W 080°36'3 5.9
2017-Aug-18 12:00N 32°00' W 080°36'3759.0 270 / 11 30.0 29.6
2017-Aug-18 11:59N 32°03' W 080°37'4 6.8
2017-Aug-18 11:24N 31°59' W 080°39'4 9.2
2017-Aug-18 11:00N 31°55' W 080°39'3175.9
2017-Aug-18 11:00N 31°54' W 080°36'611.5 270 / 15 28.0 29.6
2017-Aug-18 10:29N 31°60' W 080°38'2 3.3
2017-Aug-18 10:00N 32°00' W 080°36'152.9 240 / 15 28.2 29.6
2017-Aug-18 09:58N 32°00' W 080°37'4 9.6
2017-Aug-18 09:30N 31°56' W 080°37'2 3.9
2017-Aug-18 09:00N 31°54' W 080°36'736.0 250 / 18 28.9 29.6
2017-Aug-18 08:48N 32°01' W 080°37'1 3.0
2017-Aug-18 08:30N 31°60' W 080°37'1 2.1
2017-Aug-18 08:00N 32°01' W 080°37'199.9
2017-Aug-18 08:00N 32°00' W 080°36'6 9.1 230 / 18 29.1 29.6
2017-Aug-18 07:17N 32°00' W 080°28'2 7.7
2017-Aug-18 07:00N 32°00' W 080°26'2172.9
2017-Aug-18 07:00N 32°00' W 080°24'3 5.0 210 / 14 29.3 29.6
2017-Aug-18 06:23N 32°01' W 080°27'0 1.1
2017-Aug-18 06:00N 32°00' W 080°27'8602.6
2017-Aug-18 06:00N 32°00' W 080°18'816.6 230 / 131014.410.8 29.527.5-29.6
2017-Aug-18 05:30N 32°00' W 080°27'3 5.8
2017-Aug-18 05:00N 32°00' W 080°24'351.8 220 / 18 29.4 29.6
2017-Aug-18 04:56N 32°01' W 080°27'1 1.4
2017-Aug-18 04:30N 32°00' W 080°28'3 6.4
2017-Aug-18 04:00N 32°00' W 080°24'329.9 210 / 17 29.5 29.7
2017-Aug-18 03:54N 32°00' W 080°27'1 1.8
2017-Aug-18 03:27N 32°00' W 080°27'1 2.3
2017-Aug-18 03:00N 32°00' W 080°28'3248.4
2017-Aug-18 03:00N 32°00' W 080°24'2 4.7 210 / 18 29.9 29.8
2017-Aug-18 02:28N 32°00' W 080°27'815.9
2017-Aug-18 02:00N 32°00' W 080°18'6 6.5 210 / 17 29.8 30.0
2017-Aug-18 01:08N 32°01' W 080°12'210.6
2017-Aug-18 00:54N 32°02' W 080°09'1314.0
2017-Aug-18 00:00N 32°00' W 079°54'646.1 210 / 11 29.8 29.5
2017-Aug-17 23:52N 32°05' W 079°57'410.8
2017-Aug-17 23:28N 32°07' W 079°52'510.7
2017-Aug-17 23:00N 32°09' W 079°47'5398.0
2017-Aug-17 23:00N 32°06' W 079°42'8 7.9 210 / 11 30.0 29.8
2017-Aug-17 22:00N 32°12' W 079°36'1616.4 210 / 10 29.8 29.7
2017-Aug-17 21:00N 32°18' W 079°18'8 7.9 210 / 91014.510.8 29.928.7-29.7
2017-Aug-17 20:00N 32°24' W 079°12'1211.8 200 / 10 30.130.130.2
2017-Aug-17 19:00N 32°30' W 079°00'1211.8 200 / 10 29.7 29.8
2017-Aug-17 18:00N 32°36' W 078°48'8 7.8 210 / 10 29.6 29.4
2017-Aug-17 17:00N 32°42' W 078°42'1615.7 210 / 12 29.2 29.4
2017-Aug-17 16:00N 32°54' W 078°30'1211.7 220 / 11 29.1 29.4
2017-Aug-17 15:00N 33°00' W 078°18'1211.7 170 / 9 28.9 29.1
2017-Aug-17 14:00N 33°06' W 078°06'1211.7 220 / 6 28.7 29.0
2017-Aug-17 13:00N 33°12' W 077°54'1211.7 200 / 6 28.6 28.8
2017-Aug-17 12:00N 33°18' W 077°42'1211.7 190 / 6 28.4 28.5
2017-Aug-17 11:00N 33°24' W 077°30'8 7.8 210 / 6 28.3 28.7
2017-Aug-17 10:00N 33°30' W 077°24'1211.7 160 / 4 28.2 29.0
2017-Aug-17 09:00N 33°36' W 077°12'1615.6 120 / 4 28.1 29.0
2017-Aug-17 08:00N 33°48' W 077°00'8 7.8 070 / 2 27.8 28.9
2017-Aug-17 07:00N 33°54' W 076°54'1211.6 030 / 2 27.5 28.7
2017-Aug-17 06:00N 34°00' W 076°42'8 7.8 310 / 2 27.5 28.7
2017-Aug-17 05:00N 34°06' W 076°36'1615.6 310 / 3 27.6 28.6
2017-Aug-17 04:00N 34°18' W 076°24'1616.0 360 / 4 27.5 28.7
2017-Aug-17 03:00N 34°24' W 076°06'8 7.8 020 / 21016.010.8 27.526.4-28.6
2017-Aug-17 02:00N 34°30' W 076°00'8 7.8 050 / 9 27.1 29.6
2017-Aug-17 01:00N 34°36' W 075°54'1211.6 060 / 11 26.9 28.4
2017-Aug-17 00:00N 34°42' W 075°42'8 7.8 050 / 11 26.9 28.2
2017-Aug-16 23:00N 34°48' W 075°36'1211.5 040 / 13 28.8 28.2
2017-Aug-16 22:00N 34°54' W 075°24'1313.0 030 / 13 29.9 28.7
2017-Aug-16 21:00N 35°06' W 075°18'8 7.8 020 / 14 29.7 28.4
2017-Aug-16 20:00N 35°12' W 075°12'1212.0 010 / 14 28.9 27.0
2017-Aug-16 19:00N 35°24' W 075°12'1212.0 010 / 12 30.6 26.7
2017-Aug-16 18:00N 35°36' W 075°12'1212.0 010 / 10 27.4 26.7
2017-Aug-16 17:00N 35°48' W 075°12'1212.0 010 / 10 26.5 25.9
2017-Aug-16 16:00N 36°00' W 075°12'1312.9 040 / 9 26.2 26.1
2017-Aug-16 15:00N 36°12' W 075°06'1312.9 010 / 91015.0 31.027.0-25.9
2017-Aug-16 14:00N 36°24' W 075°12'1212.0 010 / 7 26.4 25.8
2017-Aug-16 13:00N 36°36' W 075°12'6 6.0 020 / 8 26.2 25.7
2017-Aug-16 12:00N 36°42' W 075°12'1212.0 030 / 6 25.4 25.7
2017-Aug-16 11:00N 36°54' W 075°12'1212.0 020 / 6 25.1 25.4
2017-Aug-16 10:00N 37°06' W 075°12'1515.3 010 / 7 24.724.725.6
2017-Aug-16 09:00N 37°18' W 075°00'6 6.0 360 / 7 24.124.125.1
2017-Aug-16 08:00N 37°24' W 075°00'1312.9 030 / 4 23.923.925.0
2017-Aug-16 07:00N 37°36' W 074°54'1312.9 340 / 2 24.224.224.7
2017-Aug-16 06:00N 37°48' W 074°48'8 7.6 290 / 2 24.224.224.7
2017-Aug-16 05:00N 37°54' W 074°42'1312.9 350 / 2 24.524.524.9
2017-Aug-16 04:00N 38°06' W 074°36'1312.9 040 / 4 24.824.725.1
2017-Aug-16 03:00N 38°18' W 074°30'8 7.6 040 / 4 24.724.625.2
2017-Aug-16 02:00N 38°24' W 074°24'1312.9 020 / 6 24.824.725.3
2017-Aug-16 01:00N 38°36' W 074°18'1312.9 060 / 6 24.824.125.1
2017-Aug-16 00:00N 38°48' W 074°12'2010.1 040 / 5 24.124.224.7
2017-Aug-15 22:00N 39°06' W 074°00'1312.9 030 / 10 23.723.824.8
2017-Aug-15 21:00N 39°18' W 073°54'1312.9 050 / 7 23.523.524.6
2017-Aug-15 20:00N 39°30' W 073°48'1111.0 090 / 5 23.323.323.9
2017-Aug-15 19:00N 39°36' W 073°36'8 7.6 110 / 3 23.123.124.0
2017-Aug-15 18:00N 39°42' W 073°30'1111.0 110 / 5 23.322.623.9
2017-Aug-15 17:00N 39°48' W 073°18'1515.1 120 / 9 23.222.823.7
2017-Aug-15 16:00N 40°00' W 073°06'1111.0 110 / 10 23.221.624.2
2017-Aug-15 15:00N 40°06' W 072°54'1111.0 120 / 8 23.618.024.1
2017-Aug-15 14:00N 40°12' W 072°42'1110.9 110 / 8 22.821.722.5
2017-Aug-15 13:00N 40°18' W 072°30'1110.9 110 / 9 22.521.922.6
2017-Aug-15 12:00N 40°24' W 072°18'1110.9 080 / 7 22.521.522.5
2017-Aug-15 11:00N 40°30' W 072°06'2612.8 050 / 6 22.321.122.2
2017-Aug-15 09:00N 40°48' W 071°42'1110.9 310 / 6 22.519.522.4
2017-Aug-15 08:00N 40°54' W 071°30'1312.8 240 / 7 22.320.422.1
2017-Aug-15 07:00N 41°06' W 071°24'2210.0 210 / 11 22.321.622.5
2017-Aug-15 04:48N 41°24' W 071°07'6 9.3
2017-Aug-15 04:07N 41°27' W 070°60'1 8.8
2017-Aug-15 04:00N 41°28' W 070°59'5 9.9
2017-Aug-15 03:30N 41°30' W 070°53'510.6
2017-Aug-15 02:59N 41°33' W 070°46'9 9.2
2017-Aug-15 01:59N 41°41' W 070°41'3 5.6
2017-Aug-15 01:30N 41°43' W 070°39'1121.4
2017-Aug-15 01:00N 41°42' W 070°24'839.8 1015.510.8 20.719.7
2017-Aug-15 00:47N 41°46' W 070°34'2 7.6
2017-Aug-15 00:30N 41°46' W 070°31'4 7.0
2017-Aug-15 00:00N 41°48' W 070°27'3 5.4
2017-Aug-14 23:30N 41°51' W 070°28'3 6.6
2017-Aug-14 23:00N 41°54' W 070°28'4 8.1
2017-Aug-14 22:30N 41°58' W 070°29'510.7
2017-Aug-14 22:00N 42°04' W 070°30'611.2
2017-Aug-14 21:30N 42°09' W 070°32'510.8
2017-Aug-14 21:00N 42°13' W 070°36'5365.3
2017-Aug-14 21:00N 42°12' W 070°30'1020.3 100 / 101015.3 5.4 22.321.1-20.3
2017-Aug-14 20:30N 42°17' W 070°41'510.6
2017-Aug-14 20:00N 42°22' W 070°45'5 9.4
2017-Aug-14 19:30N 42°23' W 070°51'5 9.5
2017-Aug-14 19:00N 42°20' W 070°57'3 6.7
2017-Aug-14 18:30N 42°21' W 071°01'2 3.7
2017-Aug-14 18:00N 42°22' W 071°03'0 0.0
2017-Aug-14 17:29N 42°22' W 071°03'0 0.0
2017-Aug-14 16:59N 42°22' W 071°03'0 0.0
2017-Aug-14 16:29N 42°22' W 071°03'0 0.0
2017-Aug-14 15:59N 42°22' W 071°03'0 0.0
2017-Aug-14 15:29N 42°22' W 071°03'0 0.0
2017-Aug-14 14:59N 42°22' W 071°03'0 0.0
2017-Aug-14 14:29N 42°22' W 071°03'0 0.0
2017-Aug-14 13:59N 42°22' W 071°03'0 0.0
2017-Aug-14 13:29N 42°22' W 071°03'0 0.0
2017-Aug-14 12:59N 42°22' W 071°03'0 0.0
2017-Aug-14 12:29N 42°22' W 071°03'0 0.0
2017-Aug-14 11:59N 42°22' W 071°03'0 0.0
2017-Aug-14 11:26N 42°22' W 071°03'0 0.0
2017-Aug-14 10:59N 42°22' W 071°03'0 0.0
2017-Aug-14 10:29N 42°22' W 071°03'0 0.0
2017-Aug-14 09:59N 42°22' W 071°03'0 0.0
2017-Aug-14 09:29N 42°22' W 071°03'0 0.0
2017-Aug-14 08:59N 42°22' W 071°03'0 0.0
2017-Aug-14 08:29N 42°22' W 071°03'0 0.0
2017-Aug-14 07:59N 42°22' W 071°03'0 0.0
2017-Aug-14 07:29N 42°22' W 071°03'0 0.0
2017-Aug-14 06:59N 42°22' W 071°03'0 0.0
2017-Aug-14 06:29N 42°22' W 071°03'0 0.0
2017-Aug-14 05:59N 42°22' W 071°03'0 0.0
2017-Aug-14 05:29N 42°22' W 071°03'0 0.0
2017-Aug-14 04:59N 42°22' W 071°03'0 0.0
2017-Aug-14 04:29N 42°22' W 071°03'0 0.0
2017-Aug-14 03:59N 42°22' W 071°03'0 0.0
2017-Aug-14 03:29N 42°22' W 071°03'0 0.0
2017-Aug-14 02:59N 42°22' W 071°03'0 0.0
2017-Aug-14 02:29N 42°22' W 071°03'0 0.0
2017-Aug-14 01:59N 42°22' W 071°03'0 0.0
2017-Aug-14 01:29N 42°22' W 071°03'0 0.0
2017-Aug-14 00:59N 42°22' W 071°03'0 0.0
2017-Aug-14 00:29N 42°22' W 071°03'0 0.0
2017-Aug-13 23:59N 42°22' W 071°03'0 0.0
2017-Aug-13 23:29N 42°22' W 071°03'0 0.0
2017-Aug-13 22:59N 42°22' W 071°03'0 0.0
2017-Aug-13 22:29N 42°22' W 071°03'0 0.0
2017-Aug-13 21:59N 42°22' W 071°03'0 0.0
2017-Aug-13 21:29N 42°22' W 071°03'0 0.0
2017-Aug-13 20:59N 42°22' W 071°03'0 0.0
2017-Aug-13 20:29N 42°22' W 071°03'0 0.0
2017-Aug-13 19:53N 42°22' W 071°03'0 0.0
2017-Aug-13 19:29N 42°22' W 071°03'0 0.0
2017-Aug-13 18:59N 42°22' W 071°03'0 0.0
2017-Aug-13 18:29N 42°22' W 071°03'0 0.0
2017-Aug-13 17:59N 42°22' W 071°03'0 0.0
2017-Aug-13 17:29N 42°22' W 071°03'0 0.0
2017-Aug-13 16:59N 42°22' W 071°03'0 0.0
2017-Aug-13 16:29N 42°22' W 071°03'0 0.0
2017-Aug-13 15:59N 42°22' W 071°03'0 0.0
2017-Aug-13 15:29N 42°22' W 071°03'0 0.0
2017-Aug-13 14:59N 42°22' W 071°03'0 0.0
2017-Aug-13 14:29N 42°22' W 071°03'0 0.0
2017-Aug-13 13:59N 42°22' W 071°03'0 0.0
2017-Aug-13 13:29N 42°22' W 071°03'0 0.0
2017-Aug-13 12:59N 42°22' W 071°03'0 0.0
2017-Aug-13 12:29N 42°22' W 071°03'0 0.0
2017-Aug-13 11:59N 42°22' W 071°03'0 0.0
2017-Aug-13 11:29N 42°22' W 071°03'0 0.0
2017-Aug-13 10:59N 42°22' W 071°03'0 0.0
2017-Aug-13 10:29N 42°22' W 071°03'0 0.0
2017-Aug-13 09:59N 42°22' W 071°03'0 0.0
2017-Aug-13 09:29N 42°22' W 071°03'0 0.0
2017-Aug-13 09:00N 42°22' W 071°03'0 0.0
2017-Aug-13 08:29N 42°22' W 071°03'0 0.0
2017-Aug-13 07:59N 42°22' W 071°03'0 0.0
2017-Aug-13 07:29N 42°22' W 071°03'0 0.0
2017-Aug-13 06:59N 42°22' W 071°03'0 0.0
2017-Aug-13 06:29N 42°22' W 071°03'0 0.0
2017-Aug-13 05:59N 42°22' W 071°03'0 0.0
2017-Aug-13 05:29N 42°22' W 071°03'0 0.0
2017-Aug-13 04:59N 42°22' W 071°03'0 0.0
2017-Aug-13 04:29N 42°22' W 071°03'0 0.0
2017-Aug-13 03:59N 42°22' W 071°03'0 0.0
2017-Aug-13 03:29N 42°22' W 071°03'0 0.0
2017-Aug-13 02:59N 42°22' W 071°03'0 0.0
2017-Aug-13 02:29N 42°22' W 071°03'0 0.0
2017-Aug-13 01:59N 42°22' W 071°03'0 0.0
2017-Aug-13 01:29N 42°22' W 071°03'0 0.0
2017-Aug-13 00:59N 42°22' W 071°03'0 0.0
2017-Aug-13 00:29N 42°22' W 071°03'0 0.0
2017-Aug-12 23:59N 42°22' W 071°03'0 0.0
2017-Aug-12 23:29N 42°22' W 071°03'0 0.0
2017-Aug-12 22:59N 42°22' W 071°03'0 0.0
2017-Aug-12 22:29N 42°22' W 071°03'0 0.0
2017-Aug-12 21:59N 42°22' W 071°03'0 0.0
2017-Aug-12 21:29N 42°22' W 071°03'0 0.0
2017-Aug-12 20:59N 42°22' W 071°03'0 0.0
2017-Aug-12 20:29N 42°22' W 071°03'0 0.0
2017-Aug-12 19:56N 42°22' W 071°03'0 0.0
2017-Aug-12 19:23N 42°22' W 071°03'0 0.0
2017-Aug-12 18:59N 42°22' W 071°03'0 0.0
2017-Aug-12 18:29N 42°22' W 071°03'0 0.0
2017-Aug-12 17:59N 42°22' W 071°03'0 0.0
2017-Aug-12 17:29N 42°22' W 071°03'0 0.0
2017-Aug-12 16:59N 42°22' W 071°03'0 0.0
2017-Aug-12 16:29N 42°22' W 071°03'0 0.0
2017-Aug-12 15:59N 42°22' W 071°03'0 0.0
2017-Aug-12 15:29N 42°22' W 071°03'0 0.0
2017-Aug-12 14:59N 42°22' W 071°03'0 0.0
2017-Aug-12 14:29N 42°22' W 071°03'0 0.0
2017-Aug-12 13:59N 42°22' W 071°03'0 0.0
2017-Aug-12 13:29N 42°22' W 071°03'0 0.0
2017-Aug-12 12:59N 42°22' W 071°03'0 0.0
2017-Aug-12 12:29N 42°22' W 071°03'0 0.0
2017-Aug-12 11:59N 42°22' W 071°03'0 0.0
2017-Aug-12 11:29N 42°22' W 071°03'0 0.0
2017-Aug-12 10:59N 42°22' W 071°03'0 0.0
2017-Aug-12 10:29N 42°22' W 071°03'0 0.0
2017-Aug-12 09:59N 42°22' W 071°03'0 0.0
2017-Aug-12 09:29N 42°22' W 071°03'0 0.0
2017-Aug-12 08:59N 42°22' W 071°03'0 0.0
2017-Aug-12 08:29N 42°22' W 071°03'0 0.0
2017-Aug-12 07:59N 42°22' W 071°03'0 0.0
2017-Aug-12 07:29N 42°22' W 071°03'0 0.0
2017-Aug-12 06:59N 42°22' W 071°03'0 0.0
2017-Aug-12 06:29N 42°22' W 071°03'0 0.0
2017-Aug-12 05:59N 42°22' W 071°03'0 0.0
2017-Aug-12 05:29N 42°22' W 071°03'0 0.0
2017-Aug-12 04:59N 42°22' W 071°03'0 0.0
2017-Aug-12 04:29N 42°22' W 071°03'0 0.0
2017-Aug-12 03:59N 42°22' W 071°03'0 0.0
2017-Aug-12 03:29N 42°22' W 071°03'0 0.0
2017-Aug-12 02:59N 42°22' W 071°03'0 0.0
2017-Aug-12 02:29N 42°22' W 071°03'0 0.0
2017-Aug-12 01:59N 42°22' W 071°03'0 0.0
2017-Aug-12 01:29N 42°22' W 071°03'0 0.0
2017-Aug-12 00:59N 42°22' W 071°03'0 0.0
2017-Aug-12 00:29N 42°22' W 071°03'0 0.0
2017-Aug-11 23:59N 42°22' W 071°03'0 0.0
2017-Aug-11 23:29N 42°22' W 071°03'0 0.0
2017-Aug-11 22:59N 42°22' W 071°03'0 0.0
2017-Aug-11 22:29N 42°22' W 071°03'0 0.0
2017-Aug-11 21:59N 42°22' W 071°03'0 0.0
2017-Aug-11 21:29N 42°22' W 071°03'0 0.0
2017-Aug-11 20:59N 42°22' W 071°03'0 0.0
2017-Aug-11 20:29N 42°22' W 071°03'0 0.0
2017-Aug-11 19:59N 42°22' W 071°03'0 0.0
2017-Aug-11 19:29N 42°22' W 071°03'0 0.0
2017-Aug-11 18:59N 42°22' W 071°03'0 0.0
2017-Aug-11 18:29N 42°22' W 071°03'0 0.0
2017-Aug-11 17:59N 42°22' W 071°03'0 0.0
2017-Aug-11 17:29N 42°22' W 071°03'0 0.0
2017-Aug-11 16:59N 42°22' W 071°03'0 0.0
2017-Aug-11 16:29N 42°22' W 071°03'0 0.0
2017-Aug-11 15:59N 42°22' W 071°03'0 0.0
2017-Aug-11 15:29N 42°22' W 071°03'0 0.0
2017-Aug-11 14:56N 42°22' W 071°03'0 0.0
2017-Aug-11 13:59N 42°22' W 071°03'0 0.0
2017-Aug-11 13:29N 42°22' W 071°03'0 0.0
2017-Aug-11 12:59N 42°22' W 071°03'0 0.0
2017-Aug-11 12:29N 42°22' W 071°03'0 0.1
2017-Aug-11 12:00N 42°22' W 071°03'44131780.8
2017-Aug-11 12:00N 49°36' W 069°06'443916.8 120 / 3 20.716.419.5
2017-Aug-11 11:31N 42°20' W 071°00'4 7.2
2017-Aug-11 11:01N 42°22' W 070°56'72042508.2
2017-Aug-11 11:00N 50°00' W 084°18'7221494.6 190 / 11 17.316.815.9
2017-Aug-11 10:31N 42°23' W 070°50'4 8.3
2017-Aug-11 10:01N 42°23' W 070°45'62536879.6
2017-Aug-11 10:00N 49°24' W 081°48'6291286.6 200 / 5 17.917.618.4
2017-Aug-11 09:30N 42°22' W 070°39'4 8.9
2017-Aug-11 09:00N 42°22' W 070°33'4292.8
2017-Aug-11 09:00N 42°18' W 070°30'4 8.7 190 / 9 19.217.819.3
2017-Aug-11 08:30N 42°21' W 070°27'4 9.0
2017-Aug-11 08:01N 42°21' W 070°21'40523897.6
2017-Aug-11 08:00N 49°06' W 070°18'405837.9 180 / 12 18.717.718.1
2017-Aug-11 07:31N 42°21' W 070°15'5 9.1
2017-Aug-11 07:00N 42°21' W 070°08'41136123.9
2017-Aug-11 07:00N 49°12' W 070°06'412852.3 180 / 14 19.418.119.5
2017-Aug-11 06:31N 42°20' W 070°02'5 9.9
2017-Aug-11 06:01N 42°21' W 069°55'3180.1
2017-Aug-11 06:00N 42°18' W 069°54'612.0 180 / 8 19.818.019.9
2017-Aug-11 05:30N 42°22' W 069°49'510.6
2017-Aug-11 05:00N 42°24' W 069°42'4298.4
2017-Aug-11 05:00N 42°24' W 069°36'1 2.7 190 / 10 20.116.020.0
2017-Aug-11 04:30N 42°25' W 069°35'510.5
2017-Aug-11 04:00N 42°26' W 069°28'4325.1
2017-Aug-11 04:00N 42°24' W 069°24'4 8.9 210 / 8 20.016.719.5
2017-Aug-11 03:30N 42°28' W 069°21'610.8
2017-Aug-11 03:00N 42°29' W 069°14'499179672.3
2017-Aug-11 03:00N 42°24' W 080°30'507683.4 200 / 9 20.117.819.6
2017-Aug-11 02:15N 42°31' W 069°03'726.9
2017-Aug-11 02:00N 42°30' W 068°54'1110.7 200 / 9 20.018.618.8
2017-Aug-11 01:00N 42°36' W 068°42'1110.7 190 / 11 20.018.818.6
2017-Aug-11 00:00N 42°42' W 068°30'852852.0 170 / 10 19.319.019.1
2017-Aug-10 23:00N 56°54' W 068°18'8422729.2 190 / 11 19.619.418.7
2017-Aug-10 22:41N 42°53' W 068°19'567819.9
2017-Aug-10 22:00N 50°12' W 077°00'569569.5 210 / 13 19.619.319.0
2017-Aug-10 21:00N 43°00' W 068°00'574.2 210 18.218.219.1
2017-Aug-10 20:56N 43°05' W 067°60'25 8.6
2017-Aug-10 18:00N 43°18' W 067°30'0 0.0 170 / 91024.327.0 19.718.0-20.1
2017-Aug-10 16:00N 43°18' W 067°30'6 6.0 130 / 2 19.517.719.9
2017-Aug-10 15:00N 43°24' W 067°30'4 4.4 050 / 2 19.217.419.0
2017-Aug-10 14:00N 43°24' W 067°36'4 4.4 340 / 3 18.617.418.6
2017-Aug-10 13:00N 43°24' W 067°30'7 7.4 300 / 3 18.017.318.1
2017-Aug-10 12:00N 43°18' W 067°36'   240 / 7 18.817.818.4

Dump ship's entire track history